createdAt,value
2019-05-12T00:02:23.053Z,8.30
2019-05-12T00:07:20.117Z,8.30
2019-05-12T00:12:18.434Z,8.20
2019-05-12T00:16:21.138Z,8.00
2019-05-12T00:21:17.884Z,8.00
2019-05-12T00:26:14.936Z,8.00
2019-05-12T00:31:11.985Z,8.00
2019-05-12T00:41:24.140Z,7.70
2019-05-12T00:46:21.227Z,7.70
2019-05-12T00:51:18.211Z,7.60
2019-05-12T00:56:17.611Z,7.70
2019-05-12T01:06:29.407Z,7.60
2019-05-12T01:11:28.604Z,7.60
2019-05-12T01:15:30.920Z,7.50
2019-05-12T01:20:28.559Z,7.40
2019-05-12T01:25:25.438Z,7.40
2019-05-12T01:35:38.683Z,7.50
2019-05-12T01:45:51.254Z,7.70
2019-05-12T01:56:03.405Z,7.60
2019-05-12T02:06:15.638Z,7.50
2019-05-12T02:15:33.564Z,7.60
2019-05-12T02:20:30.217Z,7.50
2019-05-12T02:25:28.714Z,7.50
2019-05-12T02:35:44.277Z,7.40
2019-05-12T02:45:55.128Z,7.30
2019-05-12T02:50:54.500Z,7.20
2019-05-12T02:55:54.091Z,7.10
2019-05-12T03:00:49.454Z,7.40
2019-05-12T03:05:46.401Z,7.30
2019-05-12T03:10:44.873Z,7.30
2019-05-12T03:15:44.399Z,7.30
2019-05-12T03:19:46.390Z,7.20
2019-05-12T03:24:44.935Z,7.20
2019-05-12T03:34:58.318Z,7.00
2019-05-12T03:45:10.999Z,7.00
2019-05-12T03:50:07.742Z,6.90
2019-05-12T03:55:05.554Z,6.80
2019-05-12T04:00:05.229Z,6.90
2019-05-12T04:05:04.955Z,6.80
2019-05-12T04:10:00.506Z,6.70
2019-05-12T04:14:57.606Z,6.90
2019-05-12T04:19:00.341Z,7.10
2019-05-12T04:29:15.157Z,7.00
2019-05-12T04:33:34.840Z,6.90
2019-05-12T04:38:10.508Z,7.00
2019-05-12T04:43:08.055Z,7.10
2019-05-12T04:48:06.467Z,7.10
2019-05-12T05:08:14.573Z,7.10
2019-05-12T05:13:15.022Z,7.30
2019-05-12T05:17:17.572Z,7.30
2019-05-12T05:52:38.540Z,8.00
2019-05-12T06:07:39.772Z,8.40
2019-05-12T06:26:34.931Z,8.80
2019-05-12T06:30:44.284Z,9.00
2019-05-12T06:35:41.995Z,9.10
2019-05-12T06:40:41.216Z,9.20
2019-05-12T06:45:39.638Z,9.40
2019-05-12T06:50:15.461Z,9.40
2019-05-12T06:54:18.153Z,9.50
2019-05-12T07:28:08.370Z,10.40
2019-05-12T07:33:05.830Z,10.50
2019-05-12T07:43:20.723Z,10.60
2019-05-12T07:48:18.776Z,10.70
2019-05-12T07:52:58.125Z,10.70
2019-05-12T07:57:58.751Z,11.00
2019-05-12T08:13:04.422Z,11.30
2019-05-12T08:17:18.642Z,11.50
2019-05-12T08:22:07.021Z,11.40
2019-05-12T08:27:06.493Z,11.40
2019-05-12T08:37:20.891Z,11.80
2019-05-12T08:42:18.656Z,11.90
2019-05-12T08:47:16.096Z,11.90
2019-05-12T08:52:14.209Z,12.00
2019-05-12T08:57:14.187Z,12.10
2019-05-12T09:07:30.376Z,12.30
2019-05-12T09:12:26.163Z,12.30
2019-05-12T09:21:44.335Z,12.50
2019-05-12T09:26:43.329Z,13.00
2019-05-12T09:46:53.509Z,13.20
2019-05-12T09:51:41.000Z,13.40
2019-05-12T09:55:37.396Z,13.40
2019-05-12T10:05:53.301Z,13.80
2019-05-12T10:10:50.715Z,14.50
2019-05-12T10:15:48.170Z,15.10
2019-05-12T10:19:56.207Z,15.20
2019-05-12T10:24:55.952Z,15.70
2019-05-12T10:35:05.433Z,16.20
2019-05-12T10:40:03.737Z,16.50
2019-05-12T10:45:03.957Z,15.90
2019-05-12T10:50:01.060Z,16.20
2019-05-12T10:54:40.271Z,16.40
2019-05-12T10:59:45.208Z,16.50
2019-05-12T11:09:54.672Z,16.50
2019-05-12T11:19:17.517Z,16.80
2019-05-12T11:24:13.840Z,16.30
2019-05-12T11:29:14.032Z,16.50
2019-05-12T11:34:11.298Z,16.40
2019-05-12T11:39:09.034Z,16.60
2019-05-12T11:49:26.482Z,16.40
2019-05-12T11:54:09.145Z,16.30
2019-05-12T12:04:19.466Z,16.00
2019-05-12T12:09:19.010Z,16.50
2019-05-12T12:14:16.767Z,16.60
2019-05-12T12:19:15.497Z,15.80
2019-05-12T12:23:18.077Z,16.20
2019-05-12T12:28:15.941Z,16.20
2019-05-12T12:33:14.518Z,16.30
2019-05-12T12:38:13.944Z,17.00
2019-05-12T12:43:13.571Z,16.60
2019-05-12T12:48:10.734Z,16.50
2019-05-12T12:52:50.031Z,16.80
2019-05-12T12:56:53.932Z,16.90
2019-05-12T13:01:52.346Z,16.20
2019-05-12T13:06:49.952Z,16.40
2019-05-12T13:11:47.802Z,16.30
2019-05-12T13:16:49.426Z,16.50
2019-05-12T13:20:50.406Z,16.70
2019-05-12T13:25:51.818Z,16.90
2019-05-12T13:36:04.362Z,18.10
2019-05-12T13:41:04.239Z,18.50
2019-05-12T13:51:17.852Z,19.90
2019-05-12T13:55:57.141Z,20.20
2019-05-12T14:01:10.404Z,21.00
2019-05-12T14:11:10.690Z,20.70
2019-05-12T14:16:08.652Z,21.70
2019-05-12T14:25:31.010Z,21.30
2019-05-12T14:30:10.366Z,22.20
2019-05-12T14:35:07.909Z,22.30
2019-05-12T14:40:05.978Z,22.60
2019-05-12T14:45:04.712Z,21.30
2019-05-12T14:50:03.952Z,18.20
2019-05-12T14:55:03.348Z,17.20
2019-05-12T15:00:00.083Z,16.90
2019-05-12T15:05:00.276Z,16.70
2019-05-12T15:15:18.458Z,16.20
2019-05-12T15:24:33.620Z,16.30
2019-05-12T15:45:17.698Z,15.40
2019-05-12T15:50:15.118Z,15.60
2019-05-12T15:55:13.668Z,15.70
2019-05-12T16:00:13.779Z,15.60
2019-05-12T16:05:11.322Z,15.50
2019-05-12T16:10:09.273Z,15.70
2019-05-12T16:15:11.518Z,15.50
2019-05-12T16:20:06.796Z,15.40
2019-05-12T16:24:11.224Z,15.20
2019-05-12T16:29:08.908Z,15.10
2019-05-12T16:34:06.648Z,15.10
2019-05-12T16:44:23.035Z,14.80
2019-05-12T16:49:25.126Z,15.00
2019-05-12T16:54:00.431Z,14.80
2019-05-12T16:58:58.036Z,14.60
2019-05-12T17:03:55.676Z,14.50
2019-05-12T17:08:54.381Z,14.20
2019-05-12T17:19:10.426Z,14.30
2019-05-12T17:23:13.852Z,14.00
2019-05-12T17:28:13.278Z,13.70
2019-05-12T17:33:13.496Z,13.80
2019-05-12T17:38:19.609Z,13.60
2019-05-12T17:43:11.968Z,13.50
2019-05-12T17:52:44.910Z,13.50
2019-05-12T17:57:24.583Z,13.20
2019-05-12T18:02:23.726Z,13.20
2019-05-12T18:07:23.684Z,13.10
2019-05-12T18:17:39.119Z,12.90
2019-05-12T18:22:39.284Z,12.70
2019-05-12T18:26:40.982Z,12.70
2019-05-12T18:31:43.617Z,12.80
2019-05-12T18:41:57.663Z,12.20
2019-05-12T18:46:57.524Z,12.00
2019-05-12T18:57:12.322Z,11.90
2019-05-12T19:06:31.161Z,11.80
2019-05-12T19:10:38.464Z,11.70
2019-05-12T19:25:00.083Z,11.40
2019-05-12T19:58:10.028Z,11.00
2019-05-12T20:03:00.444Z,10.80
2019-05-12T20:07:58.410Z,10.60
2019-05-12T20:12:57.160Z,10.50
2019-05-12T20:23:10.930Z,10.30
2019-05-12T20:27:17.395Z,10.40
2019-05-12T20:32:13.905Z,10.30
2019-05-12T20:37:14.129Z,10.10
2019-05-12T20:41:54.455Z,10.10
2019-05-12T20:46:56.247Z,10.10
2019-05-12T20:51:54.889Z,10.00
2019-05-12T20:56:52.952Z,10.10
2019-05-12T21:01:48.695Z,10.00
2019-05-12T21:06:48.429Z,9.80
2019-05-12T21:17:03.050Z,9.80
2019-05-12T21:22:03.957Z,9.60
2019-05-12T21:26:06.324Z,9.70
2019-05-12T21:31:04.189Z,9.50
2019-05-12T21:46:21.469Z,9.40
2019-05-12T21:56:43.950Z,9.50
2019-05-12T22:06:56.294Z,9.00
2019-05-12T22:11:53.729Z,9.00
2019-05-12T22:16:50.255Z,9.00
2019-05-12T22:21:49.505Z,9.10
2019-05-12T22:26:10.595Z,8.90
2019-05-12T22:36:26.779Z,8.90
2019-05-12T22:41:24.214Z,9.10
2019-05-12T22:46:04.560Z,8.90
2019-05-12T22:51:11.585Z,8.70
2019-05-12T23:01:18.665Z,8.70
2019-05-12T23:06:23.594Z,8.80
2019-05-12T23:11:16.750Z,8.50
2019-05-12T23:16:19.297Z,8.50
2019-05-12T23:26:35.534Z,8.50
2019-05-12T23:30:34.680Z,8.40
2019-05-12T23:40:48.387Z,8.40
2019-05-12T23:45:46.093Z,8.50
2019-05-12T23:50:43.914Z,8.50
